sensor_id;sensor_type;location;lat;lon;timestamp;temperature;humidity
80250;DHT22;69561;37.974;23.708;2023-08-06T00:00:06;29.20;57.20
80250;DHT22;69561;37.974;23.708;2023-08-06T00:02:33;29.20;57.20
80250;DHT22;69561;37.974;23.708;2023-08-06T00:04:59;29.20;57.20
80250;DHT22;69561;37.974;23.708;2023-08-06T00:07:25;29.20;57.00
80250;DHT22;69561;37.974;23.708;2023-08-06T00:09:50;29.30;56.90
80250;DHT22;69561;37.974;23.708;2023-08-06T00:12:16;29.20;56.80
80250;DHT22;69561;37.974;23.708;2023-08-06T00:14:42;29.20;56.80
80250;DHT22;69561;37.974;23.708;2023-08-06T00:17:08;29.20;57.00
80250;DHT22;69561;37.974;23.708;2023-08-06T00:19:33;29.20;57.00
80250;DHT22;69561;37.974;23.708;2023-08-06T00:21:59;29.20;57.10
80250;DHT22;69561;37.974;23.708;2023-08-06T00:24:25;29.20;57.10
80250;DHT22;69561;37.974;23.708;2023-08-06T00:26:50;29.20;57.00
80250;DHT22;69561;37.974;23.708;2023-08-06T00:29:16;29.10;57.00
80250;DHT22;69561;37.974;23.708;2023-08-06T00:31:42;29.20;56.90
80250;DHT22;69561;37.974;23.708;2023-08-06T00:34:08;29.20;56.80
80250;DHT22;69561;37.974;23.708;2023-08-06T00:36:33;29.10;56.90
80250;DHT22;69561;37.974;23.708;2023-08-06T00:38:59;29.10;57.00
80250;DHT22;69561;37.974;23.708;2023-08-06T00:41:25;29.10;57.10
80250;DHT22;69561;37.974;23.708;2023-08-06T00:43:51;29.10;58.10
80250;DHT22;69561;37.974;23.708;2023-08-06T00:46:16;29.10;56.90
80250;DHT22;69561;37.974;23.708;2023-08-06T00:48:42;29.20;56.70
80250;DHT22;69561;37.974;23.708;2023-08-06T00:51:10;29.20;56.60
80250;DHT22;69561;37.974;23.708;2023-08-06T00:53:37;29.20;56.60
80250;DHT22;69561;37.974;23.708;2023-08-06T00:56:04;29.20;56.60
80250;DHT22;69561;37.974;23.708;2023-08-06T00:58:30;29.20;56.60
80250;DHT22;69561;37.974;23.708;2023-08-06T01:00:56;29.20;56.60
80250;DHT22;69561;37.974;23.708;2023-08-06T01:03:22;29.20;56.60
80250;DHT22;69561;37.974;23.708;2023-08-06T01:05:48;29.20;56.60
80250;DHT22;69561;37.974;23.708;2023-08-06T01:10:51;29.20;56.60
80250;DHT22;69561;37.974;23.708;2023-08-06T01:16:03;29.10;56.70
80250;DHT22;69561;37.974;23.708;2023-08-06T01:18:31;29.10;56.80
80250;DHT22;69561;37.974;23.708;2023-08-06T01:20:57;29.10;56.90
80250;DHT22;69561;37.974;23.708;2023-08-06T01:23:23;29.10;56.80
80250;DHT22;69561;37.974;23.708;2023-08-06T01:31:33;29.00;56.80
80250;DHT22;69561;37.974;23.708;2023-08-06T01:34:01;29.00;56.80
80250;DHT22;69561;37.974;23.708;2023-08-06T01:36:28;29.00;56.80
80250;DHT22;69561;37.974;23.708;2023-08-06T01:38:55;29.00;56.90
80250;DHT22;69561;37.974;23.708;2023-08-06T01:41:22;29.00;56.90
80250;DHT22;69561;37.974;23.708;2023-08-06T01:43:48;29.00;56.80
80250;DHT22;69561;37.974;23.708;2023-08-06T01:46:14;29.00;56.80
80250;DHT22;69561;37.974;23.708;2023-08-06T01:48:40;29.00;56.80
80250;DHT22;69561;37.974;23.708;2023-08-06T01:51:06;29.00;56.80
80250;DHT22;69561;37.974;23.708;2023-08-06T01:53:32;29.00;56.90
80250;DHT22;69561;37.974;23.708;2023-08-06T01:55:58;29.00;57.00
80250;DHT22;69561;37.974;23.708;2023-08-06T01:58:24;29.00;57.10
80250;DHT22;69561;37.974;23.708;2023-08-06T02:00:49;29.00;57.10
80250;DHT22;69561;37.974;23.708;2023-08-06T02:03:15;29.10;56.80
80250;DHT22;69561;37.974;23.708;2023-08-06T02:05:41;29.10;56.70
80250;DHT22;69561;37.974;23.708;2023-08-06T02:08:07;29.20;56.70
80250;DHT22;69561;37.974;23.708;2023-08-06T02:10:33;29.20;56.60
80250;DHT22;69561;37.974;23.708;2023-08-06T02:12:58;29.20;56.50
80250;DHT22;69561;37.974;23.708;2023-08-06T02:15:24;29.20;56.50
80250;DHT22;69561;37.974;23.708;2023-08-06T02:17:50;29.20;56.30
80250;DHT22;69561;37.974;23.708;2023-08-06T02:20:16;29.20;56.40
80250;DHT22;69561;37.974;23.708;2023-08-06T02:22:41;29.20;56.40
80250;DHT22;69561;37.974;23.708;2023-08-06T02:25:07;29.20;56.40
80250;DHT22;69561;37.974;23.708;2023-08-06T02:27:33;29.20;56.40
80250;DHT22;69561;37.974;23.708;2023-08-06T02:29:59;29.20;56.50
80250;DHT22;69561;37.974;23.708;2023-08-06T02:32:25;29.20;56.50
80250;DHT22;69561;37.974;23.708;2023-08-06T02:34:50;29.20;56.60
80250;DHT22;69561;37.974;23.708;2023-08-06T02:37:16;29.20;56.60
80250;DHT22;69561;37.974;23.708;2023-08-06T02:39:42;29.20;56.40
80250;DHT22;69561;37.974;23.708;2023-08-06T02:42:08;29.20;56.50
80250;DHT22;69561;37.974;23.708;2023-08-06T02:44:35;29.20;56.50
80250;DHT22;69561;37.974;23.708;2023-08-06T02:47:01;29.20;56.50
80250;DHT22;69561;37.974;23.708;2023-08-06T02:49:27;29.10;56.60
80250;DHT22;69561;37.974;23.708;2023-08-06T02:51:52;29.10;56.70
80250;DHT22;69561;37.974;23.708;2023-08-06T02:54:19;29.10;56.70
80250;DHT22;69561;37.974;23.708;2023-08-06T02:56:45;29.10;56.60
80250;DHT22;69561;37.974;23.708;2023-08-06T02:59:14;29.10;56.50
80250;DHT22;69561;37.974;23.708;2023-08-06T03:01:40;29.10;56.50
80250;DHT22;69561;37.974;23.708;2023-08-06T03:04:06;29.10;56.50
80250;DHT22;69561;37.974;23.708;2023-08-06T03:06:31;29.00;56.50
80250;DHT22;69561;37.974;23.708;2023-08-06T03:08:57;29.10;56.40
80250;DHT22;69561;37.974;23.708;2023-08-06T03:11:23;29.10;56.30
80250;DHT22;69561;37.974;23.708;2023-08-06T03:13:49;29.10;56.10
80250;DHT22;69561;37.974;23.708;2023-08-06T03:16:14;29.20;56.00
80250;DHT22;69561;37.974;23.708;2023-08-06T03:18:40;29.20;55.90
80250;DHT22;69561;37.974;23.708;2023-08-06T03:21:06;29.20;55.80
80250;DHT22;69561;37.974;23.708;2023-08-06T03:23:32;29.20;55.80
80250;DHT22;69561;37.974;23.708;2023-08-06T03:26:03;29.20;55.80
80250;DHT22;69561;37.974;23.708;2023-08-06T03:28:29;29.20;55.80
80250;DHT22;69561;37.974;23.708;2023-08-06T03:31:02;29.20;55.80
80250;DHT22;69561;37.974;23.708;2023-08-06T03:33:28;29.20;55.70
80250;DHT22;69561;37.974;23.708;2023-08-06T03:35:54;29.20;55.70
80250;DHT22;69561;37.974;23.708;2023-08-06T03:38:19;29.20;55.60
80250;DHT22;69561;37.974;23.708;2023-08-06T03:40:46;29.20;55.60
80250;DHT22;69561;37.974;23.708;2023-08-06T03:43:12;29.20;55.60
80250;DHT22;69561;37.974;23.708;2023-08-06T03:45:37;29.20;55.50
80250;DHT22;69561;37.974;23.708;2023-08-06T03:48:03;29.20;55.30
80250;DHT22;69561;37.974;23.708;2023-08-06T03:50:29;29.20;55.20
80250;DHT22;69561;37.974;23.708;2023-08-06T03:52:55;29.20;55.20
80250;DHT22;69561;37.974;23.708;2023-08-06T03:55:21;29.30;56.20
80250;DHT22;69561;37.974;23.708;2023-08-06T03:57:46;29.30;55.10
80250;DHT22;69561;37.974;23.708;2023-08-06T04:00:12;29.30;55.10
80250;DHT22;69561;37.974;23.708;2023-08-06T04:02:38;29.30;54.90
80250;DHT22;69561;37.974;23.708;2023-08-06T04:05:04;29.50;54.60
80250;DHT22;69561;37.974;23.708;2023-08-06T04:07:30;29.70;54.20
80250;DHT22;69561;37.974;23.708;2023-08-06T04:10:00;29.90;53.80
80250;DHT22;69561;37.974;23.708;2023-08-06T04:12:27;30.20;53.30
80250;DHT22;69561;37.974;23.708;2023-08-06T04:14:53;30.30;52.80
80250;DHT22;69561;37.974;23.708;2023-08-06T04:17:19;30.40;52.40
80250;DHT22;69561;37.974;23.708;2023-08-06T04:19:54;30.60;52.20
80250;DHT22;69561;37.974;23.708;2023-08-06T04:22:20;30.50;51.90
80250;DHT22;69561;37.974;23.708;2023-08-06T04:24:45;30.40;51.90
80250;DHT22;69561;37.974;23.708;2023-08-06T04:27:12;30.30;52.10
80250;DHT22;69561;37.974;23.708;2023-08-06T04:29:38;30.30;52.30
80250;DHT22;69561;37.974;23.708;2023-08-06T04:32:06;30.20;52.30
80250;DHT22;69561;37.974;23.708;2023-08-06T04:34:32;30.20;52.40
80250;DHT22;69561;37.974;23.708;2023-08-06T04:36:59;30.20;52.40
80250;DHT22;69561;37.974;23.708;2023-08-06T04:39:25;30.30;52.40
80250;DHT22;69561;37.974;23.708;2023-08-06T04:41:50;30.40;52.10
80250;DHT22;69561;37.974;23.708;2023-08-06T04:44:16;30.50;51.70
80250;DHT22;69561;37.974;23.708;2023-08-06T04:46:42;30.80;51.40
80250;DHT22;69561;37.974;23.708;2023-08-06T04:49:07;31.30;50.60
80250;DHT22;69561;37.974;23.708;2023-08-06T04:51:33;31.90;49.40
80250;DHT22;69561;37.974;23.708;2023-08-06T04:53:59;32.10;49.00
80250;DHT22;69561;37.974;23.708;2023-08-06T04:56:24;32.10;48.90
80250;DHT22;69561;37.974;23.708;2023-08-06T04:58:50;32.00;48.70
80250;DHT22;69561;37.974;23.708;2023-08-06T05:01:16;32.00;48.70
80250;DHT22;69561;37.974;23.708;2023-08-06T05:03:42;31.90;48.70
80250;DHT22;69561;37.974;23.708;2023-08-06T05:06:08;31.80;48.90
80250;DHT22;69561;37.974;23.708;2023-08-06T05:08:33;31.70;49.10
80250;DHT22;69561;37.974;23.708;2023-08-06T05:10:59;31.50;49.20
80250;DHT22;69561;37.974;23.708;2023-08-06T05:13:25;31.30;49.40
80250;DHT22;69561;37.974;23.708;2023-08-06T05:15:52;31.20;49.60
80250;DHT22;69561;37.974;23.708;2023-08-06T05:18:18;31.10;49.80
80250;DHT22;69561;37.974;23.708;2023-08-06T05:20:44;31.00;50.00
80250;DHT22;69561;37.974;23.708;2023-08-06T05:23:10;30.90;50.00
80250;DHT22;69561;37.974;23.708;2023-08-06T05:25:37;30.80;50.10
80250;DHT22;69561;37.974;23.708;2023-08-06T05:28:03;30.80;50.20
80250;DHT22;69561;37.974;23.708;2023-08-06T05:30:28;30.70;50.30
80250;DHT22;69561;37.974;23.708;2023-08-06T05:32:54;30.70;50.40
80250;DHT22;69561;37.974;23.708;2023-08-06T05:35:21;30.60;50.30
80250;DHT22;69561;37.974;23.708;2023-08-06T05:37:47;30.60;50.20
80250;DHT22;69561;37.974;23.708;2023-08-06T05:40:13;30.60;50.20
80250;DHT22;69561;37.974;23.708;2023-08-06T05:42:39;30.60;50.40
80250;DHT22;69561;37.974;23.708;2023-08-06T05:45:06;30.60;50.20
80250;DHT22;69561;37.974;23.708;2023-08-06T05:47:31;30.60;50.10
80250;DHT22;69561;37.974;23.708;2023-08-06T05:49:57;30.60;50.20
80250;DHT22;69561;37.974;23.708;2023-08-06T05:52:23;30.60;50.10
80250;DHT22;69561;37.974;23.708;2023-08-06T05:54:48;30.50;50.10
80250;DHT22;69561;37.974;23.708;2023-08-06T05:57:14;30.50;50.00
80250;DHT22;69561;37.974;23.708;2023-08-06T05:59:41;30.50;49.80
80250;DHT22;69561;37.974;23.708;2023-08-06T06:02:07;30.50;50.10
80250;DHT22;69561;37.974;23.708;2023-08-06T06:04:33;30.50;50.00
80250;DHT22;69561;37.974;23.708;2023-08-06T06:06:58;30.50;49.90
80250;DHT22;69561;37.974;23.708;2023-08-06T06:09:24;30.40;49.90
80250;DHT22;69561;37.974;23.708;2023-08-06T06:11:50;30.40;49.90
80250;DHT22;69561;37.974;23.708;2023-08-06T06:14:19;30.50;50.00
80250;DHT22;69561;37.974;23.708;2023-08-06T06:16:45;30.50;49.80
80250;DHT22;69561;37.974;23.708;2023-08-06T06:19:11;30.40;49.90
80250;DHT22;69561;37.974;23.708;2023-08-06T06:21:38;30.50;49.90
80250;DHT22;69561;37.974;23.708;2023-08-06T06:24:04;30.40;49.90
80250;DHT22;69561;37.974;23.708;2023-08-06T06:26:31;30.40;49.90
80250;DHT22;69561;37.974;23.708;2023-08-06T06:28:57;30.40;50.00
80250;DHT22;69561;37.974;23.708;2023-08-06T06:31:23;30.30;50.00
80250;DHT22;69561;37.974;23.708;2023-08-06T06:33:49;30.30;50.10
80250;DHT22;69561;37.974;23.708;2023-08-06T06:36:14;30.10;50.30
80250;DHT22;69561;37.974;23.708;2023-08-06T06:38:40;30.10;50.40
80250;DHT22;69561;37.974;23.708;2023-08-06T06:41:06;30.10;50.50
80250;DHT22;69561;37.974;23.708;2023-08-06T06:43:32;30.10;50.40
80250;DHT22;69561;37.974;23.708;2023-08-06T06:45:59;30.10;50.40
80250;DHT22;69561;37.974;23.708;2023-08-06T06:48:29;30.10;50.40
80250;DHT22;69561;37.974;23.708;2023-08-06T06:50:55;30.10;50.20
80250;DHT22;69561;37.974;23.708;2023-08-06T06:53:21;30.10;50.30
80250;DHT22;69561;37.974;23.708;2023-08-06T06:55:56;30.10;50.30
80250;DHT22;69561;37.974;23.708;2023-08-06T06:58:22;30.10;50.10
80250;DHT22;69561;37.974;23.708;2023-08-06T07:00:48;30.10;50.00
80250;DHT22;69561;37.974;23.708;2023-08-06T07:03:17;30.10;49.90
80250;DHT22;69561;37.974;23.708;2023-08-06T07:05:43;30.10;50.00
80250;DHT22;69561;37.974;23.708;2023-08-06T07:08:09;30.10;50.00
80250;DHT22;69561;37.974;23.708;2023-08-06T07:10:35;30.20;49.90
80250;DHT22;69561;37.974;23.708;2023-08-06T07:13:01;30.20;49.70
80250;DHT22;69561;37.974;23.708;2023-08-06T07:15:27;30.20;49.70
80250;DHT22;69561;37.974;23.708;2023-08-06T07:17:52;30.20;49.60
80250;DHT22;69561;37.974;23.708;2023-08-06T07:20:18;30.10;49.60
80250;DHT22;69561;37.974;23.708;2023-08-06T07:22:44;30.10;49.60
80250;DHT22;69561;37.974;23.708;2023-08-06T07:25:10;30.10;49.50
80250;DHT22;69561;37.974;23.708;2023-08-06T07:27:36;30.00;49.50
80250;DHT22;69561;37.974;23.708;2023-08-06T07:30:02;29.90;49.50
80250;DHT22;69561;37.974;23.708;2023-08-06T07:32:27;30.00;49.50
80250;DHT22;69561;37.974;23.708;2023-08-06T07:34:53;29.90;49.40
80250;DHT22;69561;37.974;23.708;2023-08-06T07:37:29;29.80;49.50
80250;DHT22;69561;37.974;23.708;2023-08-06T07:39:55;29.80;49.60
80250;DHT22;69561;37.974;23.708;2023-08-06T07:42:21;29.80;49.50
80250;DHT22;69561;37.974;23.708;2023-08-06T07:44:55;29.80;49.50
80250;DHT22;69561;37.974;23.708;2023-08-06T07:47:21;29.80;49.60
80250;DHT22;69561;37.974;23.708;2023-08-06T07:49:47;29.90;49.40
80250;DHT22;69561;37.974;23.708;2023-08-06T07:52:13;29.90;49.20
80250;DHT22;69561;37.974;23.708;2023-08-06T07:54:39;30.00;49.30
80250;DHT22;69561;37.974;23.708;2023-08-06T07:57:05;30.00;50.00
80250;DHT22;69561;37.974;23.708;2023-08-06T07:59:30;30.00;48.90
80250;DHT22;69561;37.974;23.708;2023-08-06T08:01:56;30.00;48.90
80250;DHT22;69561;37.974;23.708;2023-08-06T08:04:23;30.00;48.90
80250;DHT22;69561;37.974;23.708;2023-08-06T08:06:48;30.00;49.00
80250;DHT22;69561;37.974;23.708;2023-08-06T08:09:14;30.00;49.00
80250;DHT22;69561;37.974;23.708;2023-08-06T08:11:41;30.00;49.00
80250;DHT22;69561;37.974;23.708;2023-08-06T08:14:07;30.00;48.70
80250;DHT22;69561;37.974;23.708;2023-08-06T08:16:32;30.00;48.70
80250;DHT22;69561;37.974;23.708;2023-08-06T08:18:58;30.00;48.80
80250;DHT22;69561;37.974;23.708;2023-08-06T08:21:24;30.00;48.70
80250;DHT22;69561;37.974;23.708;2023-08-06T08:23:50;30.00;48.80
80250;DHT22;69561;37.974;23.708;2023-08-06T08:26:16;30.00;49.00
80250;DHT22;69561;37.974;23.708;2023-08-06T08:28:42;30.00;48.90
80250;DHT22;69561;37.974;23.708;2023-08-06T08:31:08;29.90;48.90
80250;DHT22;69561;37.974;23.708;2023-08-06T08:33:34;30.00;48.90
80250;DHT22;69561;37.974;23.708;2023-08-06T08:36:00;29.90;48.90
80250;DHT22;69561;37.974;23.708;2023-08-06T08:38:26;30.00;48.70
80250;DHT22;69561;37.974;23.708;2023-08-06T08:40:53;29.90;48.90
80250;DHT22;69561;37.974;23.708;2023-08-06T08:43:21;30.00;48.70
80250;DHT22;69561;37.974;23.708;2023-08-06T08:45:50;29.90;48.60
80250;DHT22;69561;37.974;23.708;2023-08-06T08:48:16;30.00;48.60
80250;DHT22;69561;37.974;23.708;2023-08-06T08:50:47;29.90;48.60
80250;DHT22;69561;37.974;23.708;2023-08-06T08:53:15;29.90;48.50
80250;DHT22;69561;37.974;23.708;2023-08-06T08:55:43;29.80;48.70
80250;DHT22;69561;37.974;23.708;2023-08-06T08:58:10;29.80;48.70
80250;DHT22;69561;37.974;23.708;2023-08-06T09:00:36;29.80;48.70
80250;DHT22;69561;37.974;23.708;2023-08-06T09:03:02;29.90;48.70
80250;DHT22;69561;37.974;23.708;2023-08-06T09:05:31;29.80;48.60
80250;DHT22;69561;37.974;23.708;2023-08-06T09:08:02;29.80;48.80
80250;DHT22;69561;37.974;23.708;2023-08-06T09:10:29;29.80;48.70
80250;DHT22;69561;37.974;23.708;2023-08-06T09:12:56;29.80;48.60
80250;DHT22;69561;37.974;23.708;2023-08-06T09:15:27;29.80;48.70
80250;DHT22;69561;37.974;23.708;2023-08-06T09:17:53;29.80;48.60
80250;DHT22;69561;37.974;23.708;2023-08-06T09:20:20;29.80;48.60
80250;DHT22;69561;37.974;23.708;2023-08-06T09:22:45;29.80;48.40
80250;DHT22;69561;37.974;23.708;2023-08-06T09:25:24;29.90;48.50
80250;DHT22;69561;37.974;23.708;2023-08-06T09:27:51;29.90;48.30
80250;DHT22;69561;37.974;23.708;2023-08-06T09:30:35;29.90;48.20
80250;DHT22;69561;37.974;23.708;2023-08-06T09:33:01;29.90;48.20
80250;DHT22;69561;37.974;23.708;2023-08-06T09:35:31;30.00;48.20
80250;DHT22;69561;37.974;23.708;2023-08-06T09:38:14;29.90;49.10
80250;DHT22;69561;37.974;23.708;2023-08-06T09:40:40;29.90;48.20
80250;DHT22;69561;37.974;23.708;2023-08-06T09:43:06;29.90;49.30
80250;DHT22;69561;37.974;23.708;2023-08-06T09:45:36;29.90;48.20
80250;DHT22;69561;37.974;23.708;2023-08-06T09:48:08;29.80;48.10
80250;DHT22;69561;37.974;23.708;2023-08-06T09:50:36;29.80;48.40
80250;DHT22;69561;37.974;23.708;2023-08-06T09:53:06;29.70;48.40
80250;DHT22;69561;37.974;23.708;2023-08-06T09:55:33;29.50;48.30
80250;DHT22;69561;37.974;23.708;2023-08-06T09:57:59;29.40;48.40
80250;DHT22;69561;37.974;23.708;2023-08-06T10:00:26;29.40;48.40
80250;DHT22;69561;37.974;23.708;2023-08-06T10:02:53;29.50;48.50
80250;DHT22;69561;37.974;23.708;2023-08-06T10:05:22;29.50;48.50
80250;DHT22;69561;37.974;23.708;2023-08-06T10:07:49;29.50;48.20
80250;DHT22;69561;37.974;23.708;2023-08-06T10:10:16;29.40;48.30
80250;DHT22;69561;37.974;23.708;2023-08-06T10:12:50;29.50;49.30
80250;DHT22;69561;37.974;23.708;2023-08-06T10:15:20;29.50;48.00
80250;DHT22;69561;37.974;23.708;2023-08-06T10:17:47;29.60;47.90
80250;DHT22;69561;37.974;23.708;2023-08-06T10:20:14;29.60;47.90
80250;DHT22;69561;37.974;23.708;2023-08-06T10:22:43;29.60;47.90
80250;DHT22;69561;37.974;23.708;2023-08-06T10:25:10;29.70;47.80
80250;DHT22;69561;37.974;23.708;2023-08-06T10:27:41;29.70;47.70
80250;DHT22;69561;37.974;23.708;2023-08-06T10:33:02;29.70;47.50
80250;DHT22;69561;37.974;23.708;2023-08-06T10:35:30;29.70;47.50
80250;DHT22;69561;37.974;23.708;2023-08-06T10:38:09;29.70;47.30
80250;DHT22;69561;37.974;23.708;2023-08-06T10:43:29;29.50;47.20
80250;DHT22;69561;37.974;23.708;2023-08-06T10:45:56;29.50;47.30
80250;DHT22;69561;37.974;23.708;2023-08-06T10:48:34;29.40;47.10
80250;DHT22;69561;37.974;23.708;2023-08-06T10:51:01;29.40;47.30
80250;DHT22;69561;37.974;23.708;2023-08-06T10:53:27;29.50;47.10
80250;DHT22;69561;37.974;23.708;2023-08-06T10:55:53;29.50;47.00
80250;DHT22;69561;37.974;23.708;2023-08-06T10:58:19;29.50;46.80
80250;DHT22;69561;37.974;23.708;2023-08-06T11:00:45;29.50;46.80
80250;DHT22;69561;37.974;23.708;2023-08-06T11:03:11;29.50;46.90
80250;DHT22;69561;37.974;23.708;2023-08-06T11:05:37;29.50;46.90
80250;DHT22;69561;37.974;23.708;2023-08-06T11:08:03;29.50;46.70
80250;DHT22;69561;37.974;23.708;2023-08-06T11:10:29;29.40;46.80
80250;DHT22;69561;37.974;23.708;2023-08-06T11:12:54;29.40;46.50
80250;DHT22;69561;37.974;23.708;2023-08-06T11:15:20;29.50;46.50
80250;DHT22;69561;37.974;23.708;2023-08-06T11:17:47;29.50;46.40
80250;DHT22;69561;37.974;23.708;2023-08-06T11:20:13;29.50;46.50
80250;DHT22;69561;37.974;23.708;2023-08-06T11:22:39;29.40;46.60
80250;DHT22;69561;37.974;23.708;2023-08-06T11:25:06;29.30;46.70
80250;DHT22;69561;37.974;23.708;2023-08-06T11:27:32;29.40;46.70
80250;DHT22;69561;37.974;23.708;2023-08-06T11:29:57;29.40;46.70
80250;DHT22;69561;37.974;23.708;2023-08-06T11:32:23;29.40;46.50
80250;DHT22;69561;37.974;23.708;2023-08-06T11:34:49;29.40;46.40
80250;DHT22;69561;37.974;23.708;2023-08-06T11:37:15;29.40;46.50
80250;DHT22;69561;37.974;23.708;2023-08-06T11:39:47;29.40;46.40
80250;DHT22;69561;37.974;23.708;2023-08-06T11:42:14;29.40;46.20
80250;DHT22;69561;37.974;23.708;2023-08-06T11:44:41;29.30;46.30
80250;DHT22;69561;37.974;23.708;2023-08-06T11:47:14;29.20;46.20
80250;DHT22;69561;37.974;23.708;2023-08-06T11:49:42;29.30;46.10
80250;DHT22;69561;37.974;23.708;2023-08-06T11:55:07;29.30;45.80
80250;DHT22;69561;37.974;23.708;2023-08-06T11:57:36;29.30;46.00
80250;DHT22;69561;37.974;23.708;2023-08-06T12:00:10;29.30;45.80
80250;DHT22;69561;37.974;23.708;2023-08-06T12:02:39;29.20;45.70
80250;DHT22;69561;37.974;23.708;2023-08-06T12:05:10;29.20;45.70
80250;DHT22;69561;37.974;23.708;2023-08-06T12:07:47;29.30;45.60
80250;DHT22;69561;37.974;23.708;2023-08-06T12:10:14;29.20;45.80
80250;DHT22;69561;37.974;23.708;2023-08-06T12:12:40;29.20;45.50
80250;DHT22;69561;37.974;23.708;2023-08-06T12:15:07;29.20;45.40
80250;DHT22;69561;37.974;23.708;2023-08-06T12:17:33;29.20;45.40
80250;DHT22;69561;37.974;23.708;2023-08-06T12:19:59;29.30;45.30
80250;DHT22;69561;37.974;23.708;2023-08-06T12:22:25;29.30;45.40
80250;DHT22;69561;37.974;23.708;2023-08-06T12:24:51;29.30;45.20
80250;DHT22;69561;37.974;23.708;2023-08-06T12:27:17;29.40;44.90
80250;DHT22;69561;37.974;23.708;2023-08-06T12:29:44;29.40;45.30
80250;DHT22;69561;37.974;23.708;2023-08-06T12:32:11;29.40;45.00
80250;DHT22;69561;37.974;23.708;2023-08-06T12:34:41;29.40;44.90
80250;DHT22;69561;37.974;23.708;2023-08-06T12:37:07;29.40;44.80
80250;DHT22;69561;37.974;23.708;2023-08-06T12:39:34;29.40;44.80
80250;DHT22;69561;37.974;23.708;2023-08-06T12:42:01;29.40;44.60
80250;DHT22;69561;37.974;23.708;2023-08-06T12:44:27;29.40;44.60
80250;DHT22;69561;37.974;23.708;2023-08-06T12:46:53;29.40;44.90
80250;DHT22;69561;37.974;23.708;2023-08-06T12:49:19;29.40;44.80
80250;DHT22;69561;37.974;23.708;2023-08-06T12:51:49;29.30;44.70
80250;DHT22;69561;37.974;23.708;2023-08-06T12:54:17;29.30;44.90
80250;DHT22;69561;37.974;23.708;2023-08-06T12:56:43;29.30;44.70
80250;DHT22;69561;37.974;23.708;2023-08-06T12:59:10;29.30;44.60
80250;DHT22;69561;37.974;23.708;2023-08-06T13:01:37;29.30;44.80
80250;DHT22;69561;37.974;23.708;2023-08-06T13:04:03;29.30;44.70
80250;DHT22;69561;37.974;23.708;2023-08-06T13:06:29;29.30;44.80
80250;DHT22;69561;37.974;23.708;2023-08-06T13:08:54;29.30;44.80
80250;DHT22;69561;37.974;23.708;2023-08-06T13:11:20;29.30;44.90
80250;DHT22;69561;37.974;23.708;2023-08-06T13:13:46;29.30;44.70
80250;DHT22;69561;37.974;23.708;2023-08-06T13:16:11;29.30;44.30
80250;DHT22;69561;37.974;23.708;2023-08-06T13:18:37;29.30;44.20
80250;DHT22;69561;37.974;23.708;2023-08-06T13:21:03;29.40;44.60
80250;DHT22;69561;37.974;23.708;2023-08-06T13:23:28;29.40;44.20
80250;DHT22;69561;37.974;23.708;2023-08-06T13:25:54;29.30;44.10
80250;DHT22;69561;37.974;23.708;2023-08-06T13:28:20;29.30;43.80
80250;DHT22;69561;37.974;23.708;2023-08-06T13:30:46;29.30;43.80
80250;DHT22;69561;37.974;23.708;2023-08-06T13:33:12;29.30;44.20
80250;DHT22;69561;37.974;23.708;2023-08-06T13:35:38;29.30;44.30
80250;DHT22;69561;37.974;23.708;2023-08-06T13:38:04;29.30;43.80
80250;DHT22;69561;37.974;23.708;2023-08-06T13:40:32;29.30;43.60
80250;DHT22;69561;37.974;23.708;2023-08-06T13:42:58;29.40;43.70
80250;DHT22;69561;37.974;23.708;2023-08-06T13:45:24;29.40;43.80
80250;DHT22;69561;37.974;23.708;2023-08-06T13:47:49;29.30;43.30
80250;DHT22;69561;37.974;23.708;2023-08-06T13:50:15;29.30;43.20
80250;DHT22;69561;37.974;23.708;2023-08-06T13:52:41;29.30;43.20
80250;DHT22;69561;37.974;23.708;2023-08-06T13:55:07;29.40;43.50
80250;DHT22;69561;37.974;23.708;2023-08-06T13:57:34;29.30;42.90
80250;DHT22;69561;37.974;23.708;2023-08-06T14:00:00;29.30;43.00
80250;DHT22;69561;37.974;23.708;2023-08-06T14:02:26;29.30;42.80
80250;DHT22;69561;37.974;23.708;2023-08-06T14:04:53;29.30;42.80
80250;DHT22;69561;37.974;23.708;2023-08-06T14:07:19;29.30;43.10
80250;DHT22;69561;37.974;23.708;2023-08-06T14:09:44;29.20;42.70
80250;DHT22;69561;37.974;23.708;2023-08-06T14:12:12;29.30;42.80
80250;DHT22;69561;37.974;23.708;2023-08-06T14:14:39;29.30;42.90
80250;DHT22;69561;37.974;23.708;2023-08-06T14:17:05;29.30;43.10
80250;DHT22;69561;37.974;23.708;2023-08-06T14:19:30;29.20;42.50
80250;DHT22;69561;37.974;23.708;2023-08-06T14:21:56;29.30;42.50
80250;DHT22;69561;37.974;23.708;2023-08-06T14:24:22;29.20;43.10
80250;DHT22;69561;37.974;23.708;2023-08-06T14:26:48;29.20;42.60
80250;DHT22;69561;37.974;23.708;2023-08-06T14:29:13;29.30;42.70
80250;DHT22;69561;37.974;23.708;2023-08-06T14:31:40;29.20;42.40
80250;DHT22;69561;37.974;23.708;2023-08-06T14:34:06;29.20;42.50
80250;DHT22;69561;37.974;23.708;2023-08-06T14:36:32;29.20;42.60
80250;DHT22;69561;37.974;23.708;2023-08-06T14:38:58;29.30;42.60
80250;DHT22;69561;37.974;23.708;2023-08-06T14:41:24;29.20;42.20
80250;DHT22;69561;37.974;23.708;2023-08-06T14:43:50;29.20;42.40
80250;DHT22;69561;37.974;23.708;2023-08-06T14:46:15;29.20;42.40
80250;DHT22;69561;37.974;23.708;2023-08-06T14:48:41;29.20;42.40
80250;DHT22;69561;37.974;23.708;2023-08-06T14:51:08;29.20;42.30
80250;DHT22;69561;37.974;23.708;2023-08-06T14:53:33;29.20;42.40
80250;DHT22;69561;37.974;23.708;2023-08-06T14:55:59;29.20;42.30
80250;DHT22;69561;37.974;23.708;2023-08-06T14:58:25;29.30;42.60
80250;DHT22;69561;37.974;23.708;2023-08-06T15:00:51;29.30;42.10
80250;DHT22;69561;37.974;23.708;2023-08-06T15:03:16;29.30;42.40
80250;DHT22;69561;37.974;23.708;2023-08-06T15:05:51;29.30;42.50
80250;DHT22;69561;37.974;23.708;2023-08-06T15:08:17;29.30;42.60
80250;DHT22;69561;37.974;23.708;2023-08-06T15:10:43;29.30;42.70
80250;DHT22;69561;37.974;23.708;2023-08-06T15:13:14;29.20;42.80
80250;DHT22;69561;37.974;23.708;2023-08-06T15:15:40;29.30;42.70
80250;DHT22;69561;37.974;23.708;2023-08-06T15:18:08;29.30;42.60
80250;DHT22;69561;37.974;23.708;2023-08-06T15:20:33;29.40;42.80
80250;DHT22;69561;37.974;23.708;2023-08-06T15:22:59;29.30;42.60
80250;DHT22;69561;37.974;23.708;2023-08-06T15:25:25;29.30;42.60
80250;DHT22;69561;37.974;23.708;2023-08-06T15:27:50;29.30;42.90
80250;DHT22;69561;37.974;23.708;2023-08-06T15:30:16;29.30;42.80